Seaway II — ZMR3466 — position and weather

sailwx.info

Track history (hours):
 
Tides and Currents Weather Stations Pressure Air Temp Water Temp Dewpoint Dewpoint Depression Visibility Wind Speed Wind Dir Waves Ship Positions

Seaway II

Last reported at 2015-Jul-02 02:25 UTC. Time now 2015-Jul-02 03:36 UTC.
Position S 36°52' E 174°54'.

Length 37 m.

Type: Passenger vessel. MMSI: 512001026.

Date/timePositionNaut miles runAvg speedWind from/ knotsBaromVisibWave heightAir tempDewpointWater temp
2015-Jul-02 02:25S 36°52' E 174°54'0 0.0
2015-Jul-01 23:22S 36°52' E 174°54'7 5.7
2015-Jul-01 22:12S 36°49' E 175°01'5 1.8
2015-Jul-01 19:32S 36°50' E 174°56'2 2.0
2015-Jul-01 18:33S 36°51' E 174°53'4 3.6
2015-Jul-01 17:32S 36°50' E 174°58'4 0.3
2015-Jul-01 06:33S 36°51' E 174°54'4 3.4
2015-Jul-01 05:30S 36°50' E 174°58'4 1.1
2015-Jul-01 02:15S 36°52' E 174°54'3 1.6
2015-Jul-01 00:33S 36°49' E 174°54'3 0.6
2015-Jun-30 19:31S 36°50' E 174°58'4 3.7
2015-Jun-30 18:33S 36°51' E 174°54'4 3.4
2015-Jun-30 17:31S 36°50' E 174°58'2 0.2
2015-Jun-30 06:21S 36°50' E 174°55'2 2.6
2015-Jun-30 05:33S 36°50' E 174°58'4 3.0
2015-Jun-30 04:05S 36°53' E 174°54'4 2.7
2015-Jun-30 02:33S 36°50' E 174°58'0 0.0
2015-Jun-29 22:33S 36°50' E 174°58'4 1.8
2015-Jun-29 20:33S 36°51' E 174°53'3 3.4
2015-Jun-29 19:33S 36°50' E 174°58'3 3.4
2015-Jun-29 18:33S 36°51' E 174°54'4 4.3
2015-Jun-29 17:33S 36°50' E 174°59'5 4.7
2015-Jun-29 16:30S 36°53' E 174°54'0 0.0
2015-Jun-29 15:24S 36°53' E 174°54'0 0.0
2015-Jun-29 14:30S 36°53' E 174°54'0 0.0
2015-Jun-29 13:30S 36°53' E 174°54'0 0.0
2015-Jun-29 12:24S 36°53' E 174°54'0 0.0
2015-Jun-29 10:31S 36°53' E 174°54'0 0.0
2015-Jun-29 09:18S 36°53' E 174°54'0 0.0
2015-Jun-29 08:24S 36°53' E 174°54'0 0.0
2015-Jun-29 07:30S 36°53' E 174°54'2 1.6
2015-Jun-29 06:33S 36°51' E 174°54'5 4.6
2015-Jun-29 05:33S 36°50' E 174°59'5 0.6
2015-Jun-28 21:29S 36°53' E 174°54'2 1.9
2015-Jun-28 20:33S 36°51' E 174°53'3 3.5
2015-Jun-28 19:33S 36°50' E 174°58'3 3.3
2015-Jun-28 18:33S 36°51' E 174°54'4 4.2
2015-Jun-28 17:33S 36°50' E 174°58'5 0.6
2015-Jun-28 09:21S 36°53' E 174°54'0 0.0
2015-Jun-28 08:07S 36°53' E 174°54'0 0.0
2015-Jun-28 07:31S 36°53' E 174°54'0 0.0
2015-Jun-28 06:31S 36°53' E 174°54'0 0.0
2015-Jun-28 05:31S 36°53' E 174°54'4 2.0
2015-Jun-28 03:33S 36°50' E 174°57'4 3.1
2015-Jun-28 02:19S 36°53' E 174°54'4 2.0
2015-Jun-28 00:33S 36°50' E 174°57'4 3.7
2015-Jun-27 23:33S 36°53' E 174°54'4 1.8
2015-Jun-27 21:33S 36°50' E 174°57'3 2.5
2015-Jun-27 20:16S 36°52' E 174°54'3 1.9
2015-Jun-27 18:33S 36°50' E 174°57'4 0.5
2015-Jun-27 11:27S 36°53' E 174°54'0 0.0
2015-Jun-27 09:15S 36°53' E 174°54'0 0.0
2015-Jun-27 08:21S 36°53' E 174°54'0 0.0
2015-Jun-27 07:33S 36°53' E 174°54'0 0.0
2015-Jun-27 06:15S 36°53' E 174°54'0 0.0
2015-Jun-27 05:33S 36°53' E 174°54'4 1.8
2015-Jun-27 03:33S 36°50' E 174°57'4 2.9
2015-Jun-27 02:17S 36°53' E 174°54'4 2.1
2015-Jun-27 00:33S 36°50' E 174°57'4 2.9
2015-Jun-26 23:18S 36°53' E 174°54'4 2.3
2015-Jun-26 21:33S 36°50' E 174°58'4 3.4
2015-Jun-26 20:21S 36°53' E 174°54'3 1.8
2015-Jun-26 18:33S 36°50' E 174°56'3 3.0
2015-Jun-26 17:27S 36°53' E 174°54'0 0.0
2015-Jun-26 16:09S 36°53' E 174°54'0 0.0
2015-Jun-26 11:15S 36°53' E 174°54'0 0.0
2015-Jun-26 10:33S 36°53' E 174°54'0 0.0
2015-Jun-26 08:21S 36°53' E 174°54'0 0.0
2015-Jun-26 07:33S 36°53' E 174°54'2 1.5
2015-Jun-26 06:33S 36°51' E 174°53'5 4.6
2015-Jun-26 05:33S 36°50' E 174°59'5 1.6
2015-Jun-26 02:27S 36°53' E 174°54'5 2.4
2015-Jun-26 00:33S 36°50' E 174°58'5 4.4
2015-Jun-25 23:31S 36°53' E 174°54'3 1.4
2015-Jun-25 21:33S 36°50' E 174°56'2 1.8
2015-Jun-25 20:33S 36°51' E 174°54'4 3.5
2015-Jun-25 19:33S 36°50' E 174°58'4 3.6
2015-Jun-25 18:33S 36°51' E 174°53'4 3.6
2015-Jun-25 17:31S 36°50' E 174°58'4 2.1
2015-Jun-25 15:27S 36°53' E 174°54'0 0.0
2015-Jun-25 12:22S 36°53' E 174°54'2 0.3
2015-Jun-25 06:33S 36°51' E 174°53'4 4.2
2015-Jun-25 05:33S 36°50' E 174°58'5 1.2
2015-Jun-25 01:31S 36°53' E 174°54'0 0.0
2015-Jun-24 21:27S 36°53' E 174°54'3 3.6
2015-Jun-24 20:32S 36°50' E 174°56'2 1.7
2015-Jun-24 19:33S 36°51' E 174°54'0 0.2
2015-Jun-24 18:33S 36°51' E 174°54'2 2.5
2015-Jun-24 17:33S 36°50' E 174°57'4 3.3
2015-Jun-24 16:30S 36°53' E 174°54'0 0.0
2015-Jun-24 15:30S 36°53' E 174°54'0 0.0
2015-Jun-24 13:18S 36°53' E 174°54'0 0.0
2015-Jun-24 11:30S 36°53' E 174°54'0 0.0
2015-Jun-24 07:31S 36°53' E 174°54'1 0.1
2015-Jun-23 21:09S 36°52' E 174°54'7 6.8
2015-Jun-23 20:10S 36°49' E 175°01'7 9.8
2015-Jun-23 19:28S 36°52' E 174°54'0 0.1
2015-Jun-23 18:45S 36°52' E 174°54'3 0.1
2015-Jun-22 19:33S 36°50' E 174°57'3 2.4
2015-Jun-22 18:31S 36°51' E 174°54'3 3.3
2015-Jun-22 17:33S 36°50' E 174°58'4 4.0
2015-Jun-22 16:28S 36°53' E 174°54'0 0.0
2015-Jun-22 14:28S 36°53' E 174°54'0 0.0
2015-Jun-22 11:28S 36°53' E 174°54'0 0.0
2015-Jun-22 10:28S 36°53' E 174°54'4 0.9
2015-Jun-22 05:33S 36°50' E 174°58'  
Track history (hours):
 
Tides and Currents Weather Stations Pressure Air Temp Water Temp Dewpoint Dewpoint Depression Visibility Wind Speed Wind Dir Waves Ship Positions

Seaway II

Last reported at 2015-Jul-02 02:25 UTC. Time now 2015-Jul-02 03:36 UTC.
Position S 36°52' E 174°54'.

Length 37 m.

Type: Passenger vessel. MMSI: 512001026.

Date/timePositionNaut miles runAvg speedWind from/ knotsBaromVisibWave heightAir tempDewpointWater temp
2015-Jul-02 02:25S 36°52' E 174°54'0 0.0
2015-Jul-01 23:22S 36°52' E 174°54'7 5.7
2015-Jul-01 22:12S 36°49' E 175°01'5 1.8
2015-Jul-01 19:32S 36°50' E 174°56'2 2.0
2015-Jul-01 18:33S 36°51' E 174°53'4 3.6
2015-Jul-01 17:32S 36°50' E 174°58'4 0.3
2015-Jul-01 06:33S 36°51' E 174°54'4 3.4
2015-Jul-01 05:30S 36°50' E 174°58'4 1.1
2015-Jul-01 02:15S 36°52' E 174°54'3 1.6
2015-Jul-01 00:33S 36°49' E 174°54'3 0.6
2015-Jun-30 19:31S 36°50' E 174°58'4 3.7
2015-Jun-30 18:33S 36°51' E 174°54'4 3.4
2015-Jun-30 17:31S 36°50' E 174°58'2 0.2
2015-Jun-30 06:21S 36°50' E 174°55'2 2.6
2015-Jun-30 05:33S 36°50' E 174°58'4 3.0
2015-Jun-30 04:05S 36°53' E 174°54'4 2.7
2015-Jun-30 02:33S 36°50' E 174°58'0 0.0
2015-Jun-29 22:33S 36°50' E 174°58'4 1.8
2015-Jun-29 20:33S 36°51' E 174°53'3 3.4
2015-Jun-29 19:33S 36°50' E 174°58'3 3.4
2015-Jun-29 18:33S 36°51' E 174°54'4 4.3
2015-Jun-29 17:33S 36°50' E 174°59'5 4.7
2015-Jun-29 16:30S 36°53' E 174°54'0 0.0
2015-Jun-29 15:24S 36°53' E 174°54'0 0.0
2015-Jun-29 14:30S 36°53' E 174°54'0 0.0
2015-Jun-29 13:30S 36°53' E 174°54'0 0.0
2015-Jun-29 12:24S 36°53' E 174°54'0 0.0
2015-Jun-29 10:31S 36°53' E 174°54'0 0.0
2015-Jun-29 09:18S 36°53' E 174°54'0 0.0
2015-Jun-29 08:24S 36°53' E 174°54'0 0.0
2015-Jun-29 07:30S 36°53' E 174°54'2 1.6
2015-Jun-29 06:33S 36°51' E 174°54'5 4.6
2015-Jun-29 05:33S 36°50' E 174°59'5 0.6
2015-Jun-28 21:29S 36°53' E 174°54'2 1.9
2015-Jun-28 20:33S 36°51' E 174°53'3 3.5
2015-Jun-28 19:33S 36°50' E 174°58'3 3.3
2015-Jun-28 18:33S 36°51' E 174°54'4 4.2
2015-Jun-28 17:33S 36°50' E 174°58'5 0.6
2015-Jun-28 09:21S 36°53' E 174°54'0 0.0
2015-Jun-28 08:07S 36°53' E 174°54'0 0.0
2015-Jun-28 07:31S 36°53' E 174°54'0 0.0
2015-Jun-28 06:31S 36°53' E 174°54'0 0.0
2015-Jun-28 05:31S 36°53' E 174°54'4 2.0
2015-Jun-28 03:33S 36°50' E 174°57'4 3.1
2015-Jun-28 02:19S 36°53' E 174°54'4 2.0
2015-Jun-28 00:33S 36°50' E 174°57'4 3.7
2015-Jun-27 23:33S 36°53' E 174°54'4 1.8
2015-Jun-27 21:33S 36°50' E 174°57'3 2.5
2015-Jun-27 20:16S 36°52' E 174°54'3 1.9
2015-Jun-27 18:33S 36°50' E 174°57'4 0.5
2015-Jun-27 11:27S 36°53' E 174°54'0 0.0
2015-Jun-27 09:15S 36°53' E 174°54'0 0.0
2015-Jun-27 08:21S 36°53' E 174°54'0 0.0
2015-Jun-27 07:33S 36°53' E 174°54'0 0.0
2015-Jun-27 06:15S 36°53' E 174°54'0 0.0
2015-Jun-27 05:33S 36°53' E 174°54'4 1.8
2015-Jun-27 03:33S 36°50' E 174°57'4 2.9
2015-Jun-27 02:17S 36°53' E 174°54'4 2.1
2015-Jun-27 00:33S 36°50' E 174°57'4 2.9
2015-Jun-26 23:18S 36°53' E 174°54'4 2.3
2015-Jun-26 21:33S 36°50' E 174°58'4 3.4
2015-Jun-26 20:21S 36°53' E 174°54'3 1.8
2015-Jun-26 18:33S 36°50' E 174°56'3 3.0
2015-Jun-26 17:27S 36°53' E 174°54'0 0.0
2015-Jun-26 16:09S 36°53' E 174°54'0 0.0
2015-Jun-26 11:15S 36°53' E 174°54'0 0.0
2015-Jun-26 10:33S 36°53' E 174°54'0 0.0
2015-Jun-26 08:21S 36°53' E 174°54'0 0.0
2015-Jun-26 07:33S 36°53' E 174°54'2 1.5
2015-Jun-26 06:33S 36°51' E 174°53'5 4.6
2015-Jun-26 05:33S 36°50' E 174°59'5 1.6
2015-Jun-26 02:27S 36°53' E 174°54'5 2.4
2015-Jun-26 00:33S 36°50' E 174°58'5 4.4
2015-Jun-25 23:31S 36°53' E 174°54'3 1.4
2015-Jun-25 21:33S 36°50' E 174°56'2 1.8
2015-Jun-25 20:33S 36°51' E 174°54'4 3.5
2015-Jun-25 19:33S 36°50' E 174°58'4 3.6
2015-Jun-25 18:33S 36°51' E 174°53'4 3.6
2015-Jun-25 17:31S 36°50' E 174°58'4 2.1
2015-Jun-25 15:27S 36°53' E 174°54'0 0.0
2015-Jun-25 12:22S 36°53' E 174°54'2 0.3
2015-Jun-25 06:33S 36°51' E 174°53'4 4.2
2015-Jun-25 05:33S 36°50' E 174°58'5 1.2
2015-Jun-25 01:31S 36°53' E 174°54'0 0.0
2015-Jun-24 21:27S 36°53' E 174°54'3 3.6
2015-Jun-24 20:32S 36°50' E 174°56'2 1.7
2015-Jun-24 19:33S 36°51' E 174°54'0 0.2
2015-Jun-24 18:33S 36°51' E 174°54'2 2.5
2015-Jun-24 17:33S 36°50' E 174°57'4 3.3
2015-Jun-24 16:30S 36°53' E 174°54'0 0.0
2015-Jun-24 15:30S 36°53' E 174°54'0 0.0
2015-Jun-24 13:18S 36°53' E 174°54'0 0.0
2015-Jun-24 11:30S 36°53' E 174°54'0 0.0
2015-Jun-24 07:31S 36°53' E 174°54'1 0.1
2015-Jun-23 21:09S 36°52' E 174°54'7 6.8
2015-Jun-23 20:10S 36°49' E 175°01'7 9.8
2015-Jun-23 19:28S 36°52' E 174°54'0 0.1
2015-Jun-23 18:45S 36°52' E 174°54'3 0.1
2015-Jun-22 19:33S 36°50' E 174°57'3 2.4
2015-Jun-22 18:31S 36°51' E 174°54'3 3.3
2015-Jun-22 17:33S 36°50' E 174°58'4 4.0
2015-Jun-22 16:28S 36°53' E 174°54'0 0.0
2015-Jun-22 14:28S 36°53' E 174°54'0 0.0
2015-Jun-22 11:28S 36°53' E 174°54'0 0.0
2015-Jun-22 10:28S 36°53' E 174°54'4 0.9
2015-Jun-22 05:33S 36°50' E 174°58'  

Dump ship's entire track history